createdAt,value
2022-10-01T00:01:07.162Z,100833.38
2022-10-01T00:03:34.920Z,100835.44
2022-10-01T00:06:06.408Z,100833.72
2022-10-01T00:08:33.824Z,100825.97
2022-10-01T00:11:01.612Z,100821.19
2022-10-01T00:13:30.617Z,100824.38
2022-10-01T00:15:57.569Z,100830.34
2022-10-01T00:18:24.082Z,100824.25
2022-10-01T00:20:50.769Z,100806.66
2022-10-01T00:23:19.383Z,100828.47
2022-10-01T00:25:46.016Z,100812.06
2022-10-01T00:28:12.694Z,100824.91
2022-10-01T00:30:46.511Z,100822.59
2022-10-01T00:33:13.090Z,100817.69
2022-10-01T00:35:39.665Z,100812.09
2022-10-01T00:38:06.249Z,100817.88
2022-10-01T00:40:39.370Z,100814.13
2022-10-01T00:43:31.400Z,100815.50
2022-10-01T00:46:09.441Z,100806.19
2022-10-01T00:49:01.865Z,100800.25
2022-10-01T00:51:33.284Z,100796.75
2022-10-01T00:54:08.792Z,100797.25
2022-10-01T00:56:36.852Z,100803.00
2022-10-01T00:59:04.538Z,100803.88
2022-10-01T01:01:31.466Z,100804.03
2022-10-01T01:03:58.812Z,100805.25
2022-10-01T01:06:25.547Z,100808.94
2022-10-01T01:08:55.193Z,100811.81
2022-10-01T01:11:32.134Z,100835.19
2022-10-01T01:14:12.188Z,100827.25
2022-10-01T01:17:01.472Z,100836.56
2022-10-01T01:19:43.435Z,100847.41
2022-10-01T01:22:13.434Z,100852.84
2022-10-01T01:24:51.675Z,100849.63
2022-10-01T01:27:29.007Z,100851.50
2022-10-01T01:30:03.776Z,100848.78
2022-10-01T01:32:53.006Z,100852.50
2022-10-01T01:35:26.559Z,100846.25
2022-10-01T01:37:58.772Z,100856.25
2022-10-01T01:40:27.242Z,100850.81
2022-10-01T01:42:56.246Z,100837.50
2022-10-01T01:45:30.755Z,100846.25
2022-10-01T01:48:02.179Z,100843.03
2022-10-01T01:50:34.429Z,100842.69
2022-10-01T01:53:01.179Z,100846.78
2022-10-01T01:55:30.039Z,100840.69
2022-10-01T01:57:57.217Z,100838.16
2022-10-01T02:00:23.945Z,100841.03
2022-10-01T02:02:53.957Z,100834.94
2022-10-01T02:05:25.802Z,100833.97
2022-10-01T02:08:33.073Z,100846.84
2022-10-01T02:11:23.734Z,100836.72
2022-10-01T02:14:21.371Z,100845.03
2022-10-01T02:17:03.629Z,100849.44
2022-10-01T02:19:46.007Z,100857.75
2022-10-01T02:22:44.918Z,100843.88
2022-10-01T02:25:15.501Z,100847.28
2022-10-01T02:27:48.802Z,100844.25
2022-10-01T02:30:15.491Z,100840.50
2022-10-01T02:32:46.018Z,100843.56
2022-10-01T02:35:16.356Z,100846.97
2022-10-01T02:37:45.313Z,100843.06
2022-10-01T02:40:16.239Z,100852.38
2022-10-01T02:42:50.003Z,100836.25
2022-10-01T02:45:22.808Z,100837.97
2022-10-01T02:47:59.012Z,100828.69
2022-10-01T02:50:32.226Z,100826.13
2022-10-01T02:53:07.073Z,100833.56
2022-10-01T02:55:37.864Z,100835.75
2022-10-01T02:58:05.394Z,100834.41
2022-10-01T03:00:32.361Z,100834.75
2022-10-01T03:02:59.120Z,100822.75
2022-10-01T03:05:25.966Z,100833.56
2022-10-01T03:07:52.992Z,100831.72
2022-10-01T03:10:19.841Z,100837.28
2022-10-01T03:12:46.936Z,100839.16
2022-10-01T03:15:15.333Z,100834.91
2022-10-01T03:17:41.866Z,100838.28
2022-10-01T03:20:09.744Z,100836.75
2022-10-01T03:22:36.429Z,100844.53
2022-10-01T03:25:03.551Z,100836.25
2022-10-01T03:27:30.310Z,100842.13
2022-10-01T03:29:56.892Z,100861.75
2022-10-01T03:32:23.504Z,100862.44
2022-10-01T03:34:50.132Z,100850.94
2022-10-01T03:37:16.747Z,100830.31
2022-10-01T03:39:43.271Z,100849.06
2022-10-01T03:42:09.817Z,100851.25
2022-10-01T03:44:36.427Z,100852.59
2022-10-01T03:47:02.994Z,100855.47
2022-10-01T03:49:29.534Z,100847.00
2022-10-01T03:51:56.556Z,100855.28
2022-10-01T03:54:23.373Z,100838.03
2022-10-01T03:56:49.977Z,100845.66
2022-10-01T03:59:16.609Z,100846.50
2022-10-01T04:01:43.217Z,100846.13
2022-10-01T04:04:10.006Z,100852.22
2022-10-01T04:06:36.610Z,100843.09
2022-10-01T04:09:03.379Z,100841.38
2022-10-01T04:11:30.373Z,100838.47
2022-10-01T04:13:59.928Z,100846.44
2022-10-01T04:16:26.479Z,100840.34
2022-10-01T04:18:53.846Z,100850.28
2022-10-01T04:21:20.443Z,100857.53
2022-10-01T04:23:47.152Z,100863.41
2022-10-01T04:26:13.773Z,100870.84
2022-10-01T04:28:40.364Z,100860.69
2022-10-01T04:31:25.173Z,100854.06
2022-10-01T04:33:53.847Z,100865.25
2022-10-01T04:36:20.916Z,100863.56
2022-10-01T04:38:51.012Z,100863.72
2022-10-01T04:41:17.617Z,100857.28
2022-10-01T04:43:44.258Z,100831.69
2022-10-01T04:46:10.821Z,100841.16
2022-10-01T04:48:37.310Z,100860.25
2022-10-01T04:51:03.952Z,100858.03
2022-10-01T04:53:30.750Z,100859.88
2022-10-01T04:55:57.302Z,100861.06
2022-10-01T04:58:24.034Z,100859.19
2022-10-01T05:00:50.859Z,100860.34
2022-10-01T05:03:17.921Z,100851.56
2022-10-01T05:05:44.607Z,100842.44
2022-10-01T05:08:11.161Z,100849.69
2022-10-01T05:10:37.844Z,100839.34
2022-10-01T05:13:04.448Z,100855.94
2022-10-01T05:15:31.251Z,100847.16
2022-10-01T05:17:57.826Z,100856.09
2022-10-01T05:20:27.069Z,100848.13
2022-10-01T05:22:54.471Z,100849.47
2022-10-01T05:25:21.313Z,100856.06
2022-10-01T05:27:47.970Z,100873.63
2022-10-01T05:30:24.060Z,100871.41
2022-10-01T05:32:56.417Z,100865.47
2022-10-01T05:35:23.438Z,100849.41
2022-10-01T05:37:54.015Z,100856.75
2022-10-01T05:40:20.652Z,100858.59
2022-10-01T05:42:47.542Z,100864.34
2022-10-01T05:45:14.261Z,100871.78
2022-10-01T05:47:42.407Z,100869.66
2022-10-01T05:50:09.697Z,100877.97
2022-10-01T05:52:36.263Z,100872.06
2022-10-01T05:55:03.054Z,100880.09
2022-10-01T05:57:31.139Z,100898.19
2022-10-01T05:59:58.030Z,100904.63
2022-10-01T06:02:24.737Z,100900.06
2022-10-01T06:04:51.616Z,100910.59
2022-10-01T06:07:18.345Z,100914.88
2022-10-01T06:09:45.249Z,100920.19
2022-10-01T06:12:13.662Z,100920.88
2022-10-01T06:14:43.021Z,100921.59
2022-10-01T06:17:09.576Z,100937.38
2022-10-01T06:19:36.158Z,100921.84
2022-10-01T06:22:02.692Z,100933.22
2022-10-01T06:24:30.248Z,100951.69
2022-10-01T06:26:57.170Z,100943.72
2022-10-01T06:29:24.061Z,100948.09
2022-10-01T06:31:51.912Z,100961.47
2022-10-01T06:34:18.693Z,100948.78
2022-10-01T06:36:45.439Z,100966.38
2022-10-01T06:39:12.001Z,100965.03
2022-10-01T06:41:38.591Z,100971.09
2022-10-01T06:44:05.273Z,100981.78
2022-10-01T06:46:32.450Z,100968.38
2022-10-01T06:48:59.342Z,100979.38
2022-10-01T06:51:44.519Z,100976.47
2022-10-01T06:54:11.099Z,100976.16
2022-10-01T06:56:37.772Z,100974.28
2022-10-01T06:59:04.447Z,100975.19
2022-10-01T07:01:33.029Z,100968.34
2022-10-01T07:03:59.801Z,100966.91
2022-10-01T07:06:26.533Z,100958.38
2022-10-01T07:08:53.225Z,100961.66
2022-10-01T07:11:20.430Z,100969.56
2022-10-01T07:13:49.992Z,100978.44
2022-10-01T07:16:19.083Z,100982.78
2022-10-01T07:18:45.611Z,100988.34
2022-10-01T07:21:12.230Z,100989.47
2022-10-01T07:23:38.830Z,100999.31
2022-10-01T07:26:06.115Z,100993.66
2022-10-01T07:28:32.634Z,100999.78
2022-10-01T07:31:06.862Z,100992.13
2022-10-01T07:33:33.442Z,100994.72
2022-10-01T07:36:01.733Z,101000.31
2022-10-01T07:38:28.869Z,101001.19
2022-10-01T07:40:55.470Z,100996.13
2022-10-01T07:43:22.709Z,100996.97
2022-10-01T07:45:50.256Z,100992.03
2022-10-01T07:48:17.173Z,101003.97
2022-10-01T07:50:47.525Z,101000.94
2022-10-01T07:53:14.378Z,100999.31
2022-10-01T07:55:40.952Z,101005.81
2022-10-01T07:58:08.121Z,101014.88
2022-10-01T08:00:35.383Z,101013.59
2022-10-01T08:03:02.039Z,101023.09
2022-10-01T08:05:31.194Z,101007.38
2022-10-01T08:08:03.570Z,101018.81
2022-10-01T08:10:30.674Z,101022.13
2022-10-01T08:13:08.210Z,101026.50
2022-10-01T08:15:35.582Z,101017.31
2022-10-01T08:18:05.597Z,101027.38
2022-10-01T08:20:32.550Z,101000.03
2022-10-01T08:23:07.784Z,101028.56
2022-10-01T08:25:35.100Z,101019.16
2022-10-01T08:28:02.058Z,101008.38
2022-10-01T08:30:29.682Z,101015.03
2022-10-01T08:32:58.177Z,101015.88
2022-10-01T08:35:25.511Z,101005.81
2022-10-01T08:37:52.205Z,101012.03
2022-10-01T08:40:21.658Z,101008.63
2022-10-01T08:42:51.150Z,101014.22
2022-10-01T08:45:27.118Z,101011.47
2022-10-01T08:48:07.616Z,101007.41
2022-10-01T08:50:56.284Z,101014.59
2022-10-01T08:53:38.331Z,101011.06
2022-10-01T08:56:12.955Z,101019.81
2022-10-01T08:58:45.777Z,101023.69
2022-10-01T09:01:12.457Z,101030.81
2022-10-01T09:03:40.339Z,101023.00
2022-10-01T09:06:21.517Z,101030.63
2022-10-01T09:09:20.403Z,101021.53
2022-10-01T09:12:14.132Z,101030.13
2022-10-01T09:15:17.966Z,101037.38
2022-10-01T09:17:44.402Z,101031.38
2022-10-01T09:20:27.499Z,101035.19
2022-10-01T09:23:18.845Z,101026.19
2022-10-01T09:25:50.310Z,101036.06
2022-10-01T09:28:30.219Z,101022.31
2022-10-01T09:30:59.133Z,101026.72
2022-10-01T09:33:33.722Z,101027.63
2022-10-01T09:36:34.227Z,101019.84
2022-10-01T09:39:21.842Z,101026.31
2022-10-01T09:41:48.474Z,101032.50
2022-10-01T09:44:28.828Z,101019.97
2022-10-01T09:46:55.658Z,101022.16
2022-10-01T09:49:31.646Z,101021.25
2022-10-01T09:52:04.204Z,101027.38
2022-10-01T09:54:46.874Z,101018.50
2022-10-01T09:57:36.094Z,101018.13
2022-10-01T10:00:18.300Z,101009.53
2022-10-01T10:02:50.491Z,101007.03
2022-10-01T10:05:20.486Z,100997.19
2022-10-01T10:07:51.791Z,100990.16
2022-10-01T10:10:28.564Z,100994.84
2022-10-01T10:13:01.845Z,101002.06
2022-10-01T10:15:31.370Z,100997.41
2022-10-01T10:18:07.167Z,100985.50
2022-10-01T10:20:41.476Z,100975.38
2022-10-01T10:23:17.402Z,100983.69
2022-10-01T10:25:44.238Z,100973.72
2022-10-01T10:28:23.697Z,100974.56
2022-10-01T10:30:54.042Z,100969.63
2022-10-01T10:33:23.400Z,100967.91
2022-10-01T10:36:05.145Z,100961.38
2022-10-01T10:38:34.839Z,100968.28
2022-10-01T10:41:03.979Z,100956.34
2022-10-01T10:43:36.599Z,100955.19
2022-10-01T10:46:03.693Z,100959.16
2022-10-01T10:48:35.346Z,100960.69
2022-10-01T10:51:04.891Z,100950.59
2022-10-01T10:53:44.250Z,100965.19
2022-10-01T10:56:21.897Z,100952.53
2022-10-01T10:58:49.983Z,100948.78
2022-10-01T11:01:28.784Z,100938.69
2022-10-01T11:03:58.663Z,100955.34
2022-10-01T11:06:25.590Z,100959.75
2022-10-01T11:09:07.241Z,100968.53
2022-10-01T11:11:48.648Z,100966.16
2022-10-01T11:14:31.188Z,100973.97
2022-10-01T11:17:20.320Z,100967.41
2022-10-01T11:20:02.182Z,100963.28
2022-10-01T11:22:46.901Z,100963.72
2022-10-01T11:25:35.638Z,100950.59
2022-10-01T11:28:57.674Z,100940.81
2022-10-01T11:31:47.261Z,100939.38
2022-10-01T11:34:55.245Z,100946.59
2022-10-01T11:37:33.743Z,100952.38
2022-10-01T11:40:05.135Z,100952.44
2022-10-01T11:42:36.809Z,100945.59
2022-10-01T11:45:11.259Z,100962.06
2022-10-01T11:48:01.948Z,100961.06
2022-10-01T11:50:39.051Z,100950.00
2022-10-01T11:53:17.983Z,100959.94
2022-10-01T11:56:10.741Z,100953.66
2022-10-01T11:58:54.734Z,100937.47
2022-10-01T12:01:24.963Z,100944.97
2022-10-01T12:03:54.606Z,100939.69
2022-10-01T12:06:33.773Z,100929.41
2022-10-01T12:09:15.006Z,100922.66
2022-10-01T12:11:54.556Z,100920.00
2022-10-01T12:14:31.644Z,100917.38
2022-10-01T12:17:13.671Z,100911.34
2022-10-01T12:19:45.244Z,100894.72
2022-10-01T12:22:24.555Z,100907.47
2022-10-01T12:24:53.202Z,100894.94
2022-10-01T12:27:32.020Z,100899.38
2022-10-01T12:30:07.816Z,100906.72
2022-10-01T12:33:01.923Z,100894.94
2022-10-01T12:35:51.920Z,100903.78
2022-10-01T12:38:45.048Z,100905.09
2022-10-01T12:41:43.116Z,100896.50
2022-10-01T12:44:27.537Z,100882.56
2022-10-01T12:47:14.616Z,100890.22
2022-10-01T12:49:58.515Z,100874.91
2022-10-01T12:52:40.323Z,100887.63
2022-10-01T12:55:43.424Z,100889.78
2022-10-01T12:58:39.995Z,100881.06
2022-10-01T13:01:19.192Z,100881.09
2022-10-01T13:06:55.227Z,100878.06
2022-10-01T13:09:38.516Z,100876.94
2022-10-01T13:12:05.378Z,100879.44
2022-10-01T13:14:34.784Z,100845.25
2022-10-01T13:17:21.569Z,100862.56
2022-10-01T13:19:58.276Z,100854.44
2022-10-01T13:22:42.926Z,100853.03
2022-10-01T13:25:25.124Z,100845.28
2022-10-01T13:27:56.069Z,100832.19
2022-10-01T13:30:24.932Z,100846.50
2022-10-01T13:32:57.864Z,100839.00
2022-10-01T13:35:35.956Z,100844.34
2022-10-01T13:38:13.681Z,100845.00
2022-10-01T13:40:41.060Z,100832.19
2022-10-01T13:43:16.703Z,100840.09
2022-10-01T13:45:46.426Z,100841.88
2022-10-01T13:48:18.400Z,100849.41
2022-10-01T13:51:10.745Z,100848.66
2022-10-01T13:53:47.446Z,100845.00
2022-10-01T13:56:28.521Z,100838.28
2022-10-01T13:58:55.558Z,100832.25
2022-10-01T14:01:24.354Z,100828.34
2022-10-01T14:03:55.622Z,100811.88
2022-10-01T14:06:33.200Z,100818.91
2022-10-01T14:09:11.796Z,100829.25
2022-10-01T14:12:00.850Z,100819.75
2022-10-01T14:14:50.525Z,100820.97
2022-10-01T14:17:22.426Z,100819.38
2022-10-01T14:19:50.890Z,100801.97
2022-10-01T14:22:46.710Z,100818.06
2022-10-01T14:25:35.453Z,100804.25
2022-10-01T14:28:25.400Z,100787.66
2022-10-01T14:31:33.804Z,100798.00
2022-10-01T14:34:06.270Z,100798.50
2022-10-01T14:36:35.681Z,100795.56
2022-10-01T14:39:19.835Z,100785.63
2022-10-01T14:41:51.993Z,100782.00
2022-10-01T14:44:22.045Z,100786.69
2022-10-01T14:46:49.976Z,100769.13
2022-10-01T14:49:34.804Z,100773.69
2022-10-01T14:52:07.281Z,100767.91
2022-10-01T14:54:56.218Z,100771.34
2022-10-01T14:57:35.006Z,100769.28
2022-10-01T15:00:08.926Z,100771.09
2022-10-01T15:02:50.836Z,100762.06
2022-10-01T15:05:26.599Z,100766.09
2022-10-01T15:07:53.681Z,100759.47
2022-10-01T15:10:24.847Z,100769.53
2022-10-01T15:12:52.816Z,100757.34
2022-10-01T15:15:39.477Z,100775.91
2022-10-01T15:18:06.888Z,100759.03
2022-10-01T15:20:34.240Z,100764.19
2022-10-01T15:23:01.789Z,100757.09
2022-10-01T15:25:31.482Z,100764.63
2022-10-01T15:27:58.135Z,100757.50
2022-10-01T15:30:30.502Z,100762.16
2022-10-01T15:32:57.644Z,100742.81
2022-10-01T15:35:25.059Z,100751.66
2022-10-01T15:37:53.927Z,100750.00
2022-10-01T15:40:29.149Z,100751.66
2022-10-01T15:43:21.672Z,100775.06
2022-10-01T15:46:31.376Z,100761.47
2022-10-01T15:49:19.716Z,100761.09
2022-10-01T15:52:17.960Z,100761.09
2022-10-01T15:54:45.984Z,100761.13
2022-10-01T15:57:20.949Z,100770.63
2022-10-01T15:59:50.066Z,100757.88
2022-10-01T16:02:26.270Z,100762.50
2022-10-01T16:04:55.994Z,100752.22
2022-10-01T16:07:29.496Z,100764.22
2022-10-01T16:09:59.158Z,100760.25
2022-10-01T16:12:29.370Z,100775.63
2022-10-01T16:15:01.462Z,100753.78
2022-10-01T16:17:35.369Z,100762.59
2022-10-01T16:20:14.050Z,100764.09
2022-10-01T16:22:40.740Z,100749.00
2022-10-01T16:25:25.568Z,100758.84
2022-10-01T16:27:55.358Z,100749.00
2022-10-01T16:30:27.687Z,100737.22
2022-10-01T16:32:55.430Z,100754.91
2022-10-01T16:35:33.048Z,100750.06
2022-10-01T16:38:01.031Z,100761.84
2022-10-01T16:40:33.036Z,100739.56
2022-10-01T16:43:00.691Z,100767.09
2022-10-01T16:45:32.758Z,100771.28
2022-10-01T16:48:00.527Z,100757.63
2022-10-01T16:50:27.371Z,100739.97
2022-10-01T16:52:55.744Z,100752.16
2022-10-01T16:55:26.148Z,100765.16
2022-10-01T16:57:57.084Z,100726.91
2022-10-01T17:00:26.910Z,100757.81
2022-10-01T17:02:55.451Z,100760.06
2022-10-01T17:05:27.079Z,100769.31
2022-10-01T17:07:55.086Z,100783.13
2022-10-01T17:10:23.614Z,100782.72
2022-10-01T17:12:50.359Z,100782.66
2022-10-01T17:15:20.087Z,100787.84
2022-10-01T17:17:48.415Z,100789.13
2022-10-01T17:20:15.258Z,100794.34
2022-10-01T17:22:44.904Z,100795.53
2022-10-01T17:25:18.901Z,100803.91
2022-10-01T17:27:46.067Z,100815.84
2022-10-01T17:30:13.167Z,100805.31
2022-10-01T17:32:40.371Z,100807.56
2022-10-01T17:35:08.054Z,100824.78
2022-10-01T17:37:34.943Z,100832.91
2022-10-01T17:40:02.167Z,100827.19
2022-10-01T17:42:29.142Z,100836.38
2022-10-01T17:44:56.038Z,100846.81
2022-10-01T17:47:22.931Z,100852.44
2022-10-01T17:49:49.460Z,100844.19
2022-10-01T17:52:16.769Z,100851.78
2022-10-01T17:54:43.897Z,100855.00
2022-10-01T17:57:13.816Z,100846.44
2022-10-01T17:59:40.734Z,100838.41
2022-10-01T18:02:23.558Z,100852.25
2022-10-01T18:04:54.365Z,100860.38
2022-10-01T18:07:21.256Z,100830.69
2022-10-01T18:09:47.802Z,100843.53
2022-10-01T18:12:14.662Z,100855.03
2022-10-01T18:14:43.495Z,100874.09
2022-10-01T18:17:10.236Z,100874.00
2022-10-01T18:19:53.722Z,100881.13
2022-10-01T18:22:29.556Z,100893.28
2022-10-01T18:24:56.266Z,100905.59
2022-10-01T18:27:22.941Z,100888.69
2022-10-01T18:29:49.799Z,100905.66
2022-10-01T18:32:23.729Z,100914.03
2022-10-01T18:34:59.287Z,100903.91
2022-10-01T18:37:57.806Z,100892.28
2022-10-01T18:40:29.713Z,100913.38
2022-10-01T18:43:02.438Z,100917.00
2022-10-01T18:45:46.905Z,100913.66
2022-10-01T18:48:25.610Z,100910.56
2022-10-01T18:51:11.880Z,100897.16
2022-10-01T18:54:31.929Z,100893.19
2022-10-01T18:57:28.403Z,100898.09
2022-10-01T19:00:17.644Z,100900.59
2022-10-01T19:03:02.996Z,100901.91
2022-10-01T19:05:47.655Z,100910.38
2022-10-01T19:08:24.501Z,100919.63
2022-10-01T19:11:17.820Z,100917.75
2022-10-01T19:13:44.670Z,100915.69
2022-10-01T19:16:44.283Z,100914.00
2022-10-01T19:19:40.069Z,100916.97
2022-10-01T19:22:47.879Z,100920.44
2022-10-01T19:25:32.626Z,100925.28
2022-10-01T19:28:29.277Z,100927.72
2022-10-01T19:31:08.075Z,100917.03
2022-10-01T19:33:42.078Z,100912.50
2022-10-01T19:36:17.637Z,100920.97
2022-10-01T19:38:47.185Z,100920.66
2022-10-01T19:41:18.041Z,100910.34
2022-10-01T19:44:24.820Z,100937.28
2022-10-01T19:46:56.408Z,100918.22
2022-10-01T19:49:33.968Z,100921.44
2022-10-01T19:52:04.355Z,100933.84
2022-10-01T19:54:34.847Z,100931.44
2022-10-01T19:57:17.224Z,100924.03
2022-10-01T19:59:47.300Z,100923.28
2022-10-01T20:02:21.730Z,100943.41
2022-10-01T20:04:58.820Z,100931.56
2022-10-01T20:07:56.119Z,100945.66
2022-10-01T20:10:45.312Z,100944.47
2022-10-01T20:13:14.780Z,100955.06
2022-10-01T20:16:38.376Z,100946.59
2022-10-01T20:19:23.445Z,100953.59
2022-10-01T20:22:06.342Z,100949.72
2022-10-01T20:25:05.194Z,100954.84
2022-10-01T20:27:49.154Z,100968.78
2022-10-01T20:30:21.058Z,100970.16
2022-10-01T20:33:49.553Z,100969.47
2022-10-01T20:36:23.577Z,100980.38
2022-10-01T20:38:57.306Z,100979.38
2022-10-01T20:41:29.725Z,100978.03
2022-10-01T20:44:00.060Z,100976.22
2022-10-01T20:46:33.981Z,100977.44
2022-10-01T20:49:05.409Z,100972.03
2022-10-01T20:51:43.651Z,100969.66
2022-10-01T20:54:15.610Z,100969.69
2022-10-01T20:56:47.653Z,100969.19
2022-10-01T20:59:24.040Z,100970.53
2022-10-01T21:02:02.507Z,100975.78
2022-10-01T21:04:43.407Z,100974.78
2022-10-01T21:07:36.717Z,100991.03
2022-10-01T21:10:21.279Z,101000.03
2022-10-01T21:12:59.890Z,100991.34
2022-10-01T21:15:43.705Z,100989.66
2022-10-01T21:18:33.599Z,101010.19
2022-10-01T21:21:32.731Z,101016.78
2022-10-01T21:24:06.479Z,101017.97
2022-10-01T21:26:54.393Z,101022.22
2022-10-01T21:29:39.824Z,101039.16
2022-10-01T21:32:06.664Z,101038.66
2022-10-01T21:34:50.253Z,101025.28
2022-10-01T21:37:45.857Z,101014.13
2022-10-01T21:40:43.194Z,101035.28
2022-10-01T21:43:47.828Z,101031.91
2022-10-01T21:46:41.121Z,101034.75
2022-10-01T21:49:13.594Z,101047.63
2022-10-01T21:51:55.188Z,101032.06
2022-10-01T21:54:40.729Z,101042.56
2022-10-01T21:57:10.571Z,101047.31
2022-10-01T21:59:46.068Z,101041.22
2022-10-01T22:02:48.944Z,101042.03
2022-10-01T22:05:37.946Z,101058.28
2022-10-01T22:08:16.529Z,101053.59
2022-10-01T22:10:46.941Z,101056.28
2022-10-01T22:13:23.494Z,101057.09
2022-10-01T22:15:54.284Z,101062.53
2022-10-01T22:18:36.833Z,101056.59
2022-10-01T22:21:10.745Z,101045.09
2022-10-01T22:23:41.943Z,101048.28
2022-10-01T22:26:16.493Z,101056.06
2022-10-01T22:28:47.999Z,101059.78
2022-10-01T22:31:25.977Z,101057.22
2022-10-01T22:33:57.429Z,101042.16
2022-10-01T22:36:44.364Z,101042.47
2022-10-01T22:39:17.588Z,101061.94
2022-10-01T22:41:56.463Z,101066.69
2022-10-01T22:44:23.591Z,101058.56
2022-10-01T22:46:55.998Z,101060.03
2022-10-01T22:55:19.536Z,101062.56
2022-10-01T22:57:56.166Z,101072.59
2022-10-01T23:00:23.096Z,101076.97
2022-10-01T23:03:06.964Z,101082.31
2022-10-01T23:05:52.501Z,101093.44
2022-10-01T23:08:43.460Z,101087.50
2022-10-01T23:11:25.117Z,101095.78
2022-10-01T23:14:22.696Z,101118.38
2022-10-01T23:17:04.757Z,101131.59
2022-10-01T23:19:41.691Z,101125.34
2022-10-01T23:22:11.322Z,101132.13
2022-10-01T23:25:15.996Z,101131.28
2022-10-01T23:28:13.805Z,101143.09
2022-10-01T23:31:19.488Z,101151.56
2022-10-01T23:33:53.982Z,101148.41
2022-10-01T23:37:21.589Z,101133.41
2022-10-01T23:40:04.412Z,101129.19
2022-10-01T23:42:49.500Z,101140.56
2022-10-01T23:45:28.189Z,101144.13
2022-10-01T23:48:08.428Z,101147.59
2022-10-01T23:50:58.925Z,101151.22
2022-10-01T23:53:32.786Z,101155.88
2022-10-01T23:56:23.532Z,101164.88
2022-10-01T23:59:03.184Z,101157.81
